createdAt,value
2022-12-31T00:01:13.337Z,100047.78
2022-12-31T00:03:43.068Z,100053.75
2022-12-31T00:06:17.647Z,100061.44
2022-12-31T00:08:46.778Z,100061.41
2022-12-31T00:11:16.377Z,100060.53
2022-12-31T00:13:47.875Z,100055.38
2022-12-31T00:16:18.699Z,100060.53
2022-12-31T00:18:48.891Z,100058.03
2022-12-31T00:21:18.471Z,100057.19
2022-12-31T00:23:47.679Z,100066.63
2022-12-31T00:26:18.495Z,100068.34
2022-12-31T00:28:50.026Z,100064.91
2022-12-31T00:31:22.652Z,100055.44
2022-12-31T00:33:51.963Z,100067.53
2022-12-31T00:36:23.465Z,100060.69
2022-12-31T00:38:53.464Z,100060.63
2022-12-31T00:41:23.751Z,100048.56
2022-12-31T00:43:54.541Z,100043.41
2022-12-31T00:46:24.068Z,100049.47
2022-12-31T00:48:53.349Z,100035.75
2022-12-31T00:51:24.424Z,100045.28
2022-12-31T00:53:53.021Z,100051.28
2022-12-31T00:56:23.994Z,100041.81
2022-12-31T00:58:54.480Z,100038.34
2022-12-31T01:01:25.739Z,100029.75
2022-12-31T01:03:56.972Z,100034.84
2022-12-31T01:06:26.087Z,100034.84
2022-12-31T01:08:56.499Z,100027.91
2022-12-31T01:11:29.645Z,100028.69
2022-12-31T01:14:01.585Z,100029.41
2022-12-31T01:16:31.995Z,100031.97
2022-12-31T01:19:02.522Z,100018.09
2022-12-31T01:21:31.470Z,100019.84
2022-12-31T01:24:01.003Z,100021.50
2022-12-31T01:26:29.832Z,100023.19
2022-12-31T01:28:59.831Z,100019.72
2022-12-31T01:31:28.671Z,100021.41
2022-12-31T01:33:57.327Z,100018.84
2022-12-31T01:36:28.376Z,100011.94
2022-12-31T01:38:58.620Z,100019.63
2022-12-31T01:41:29.618Z,100015.38
2022-12-31T01:44:01.905Z,100015.38
2022-12-31T01:46:36.217Z,100011.06
2022-12-31T01:49:11.369Z,100013.66
2022-12-31T01:51:43.346Z,100004.13
2022-12-31T01:54:15.123Z,100001.53
2022-12-31T01:56:43.746Z,99996.38
2022-12-31T01:59:16.562Z,99998.06
2022-12-31T02:01:46.756Z,100004.94
2022-12-31T02:04:17.717Z,100003.97
2022-12-31T02:06:52.024Z,100005.59
2022-12-31T02:09:21.426Z,100002.88
2022-12-31T02:11:49.850Z,99993.25
2022-12-31T02:14:24.106Z,99992.25
2022-12-31T02:17:02.627Z,99985.22
2022-12-31T02:19:57.544Z,99976.56
2022-12-31T02:22:38.665Z,99976.47
2022-12-31T02:25:35.087Z,99969.47
2022-12-31T02:28:16.131Z,99974.56
2022-12-31T02:30:50.149Z,99959.91
2022-12-31T02:33:23.513Z,99964.22
2022-12-31T02:35:56.624Z,99961.59
2022-12-31T02:38:31.558Z,99956.38
2022-12-31T02:41:01.920Z,99952.03
2022-12-31T02:43:31.439Z,99947.63
2022-12-31T02:46:10.012Z,99945.84
2022-12-31T02:48:46.959Z,99941.53
2022-12-31T02:51:34.852Z,99938.94
2022-12-31T02:54:19.259Z,99935.41
2022-12-31T02:56:59.072Z,99929.28
2022-12-31T02:59:50.911Z,99930.94
2022-12-31T03:02:26.361Z,99930.84
2022-12-31T03:04:58.189Z,99934.19
2022-12-31T03:07:29.527Z,99933.28
2022-12-31T03:09:59.107Z,99935.78
2022-12-31T03:12:47.601Z,99933.09
2022-12-31T03:15:22.462Z,99918.34
2022-12-31T03:17:56.501Z,99923.41
2022-12-31T03:20:45.313Z,99925.03
2022-12-31T03:23:17.286Z,99931.88
2022-12-31T03:25:54.913Z,99930.94
2022-12-31T03:28:26.042Z,99929.09
2022-12-31T03:30:57.208Z,99927.22
2022-12-31T03:33:27.696Z,99929.66
2022-12-31T03:35:56.772Z,99925.22
2022-12-31T03:38:29.081Z,99930.28
2022-12-31T03:40:58.482Z,99924.19
2022-12-31T03:43:27.660Z,99920.75
2022-12-31T03:45:59.936Z,99928.47
2022-12-31T03:48:30.738Z,99917.13
2022-12-31T03:50:59.894Z,99905.81
2022-12-31T03:53:32.305Z,99908.34
2022-12-31T03:56:10.468Z,99892.63
2022-12-31T03:58:43.082Z,99915.03
2022-12-31T04:01:14.229Z,99902.84
2022-12-31T04:03:44.284Z,99914.78
2022-12-31T04:06:13.599Z,99913.72
2022-12-31T04:08:44.210Z,99916.28
2022-12-31T04:11:19.028Z,99912.69
2022-12-31T04:13:49.765Z,99915.19
2022-12-31T04:16:18.149Z,99921.22
2022-12-31T04:18:49.053Z,99918.47
2022-12-31T04:21:18.479Z,99924.38
2022-12-31T04:23:47.527Z,99919.91
2022-12-31T04:26:16.385Z,99913.81
2022-12-31T04:28:45.870Z,99917.22
2022-12-31T04:31:15.048Z,99919.78
2022-12-31T04:33:43.919Z,99934.44
2022-12-31T04:36:14.768Z,99932.66
2022-12-31T04:38:44.380Z,99940.34
2022-12-31T04:41:24.068Z,99929.75
2022-12-31T04:43:55.644Z,99939.19
2022-12-31T04:46:26.348Z,99937.44
2022-12-31T04:48:56.204Z,99935.59
2022-12-31T04:51:27.776Z,99926.94
2022-12-31T04:53:57.402Z,99920.88
2022-12-31T04:56:26.912Z,99921.66
2022-12-31T04:58:56.353Z,99926.00
2022-12-31T05:01:27.962Z,99924.19
2022-12-31T05:03:59.311Z,99929.47
2022-12-31T05:06:30.277Z,99932.13
2022-12-31T05:09:00.731Z,99928.72
2022-12-31T05:11:29.503Z,99929.63
2022-12-31T05:13:58.139Z,99937.31
2022-12-31T05:16:26.633Z,99924.22
2022-12-31T05:18:56.609Z,99920.72
2022-12-31T05:21:25.127Z,99915.69
2022-12-31T05:23:55.181Z,99922.72
2022-12-31T05:26:23.789Z,99920.19
2022-12-31T05:28:52.384Z,99928.06
2022-12-31T05:31:20.862Z,99922.88
2022-12-31T05:33:49.877Z,99918.63
2022-12-31T05:36:18.281Z,99924.69
2022-12-31T05:38:46.785Z,99917.69
2022-12-31T05:41:16.766Z,99927.09
2022-12-31T05:43:45.232Z,99938.16
2022-12-31T05:46:13.842Z,99938.00
2022-12-31T05:48:42.517Z,99947.41
2022-12-31T05:51:11.312Z,99929.06
2022-12-31T05:53:40.552Z,99931.59
2022-12-31T05:56:08.920Z,99937.53
2022-12-31T05:58:38.873Z,99927.97
2022-12-31T06:01:07.493Z,99920.97
2022-12-31T06:03:36.053Z,99927.91
2022-12-31T06:06:04.674Z,99931.31
2022-12-31T06:08:33.329Z,99926.09
2022-12-31T06:11:01.727Z,99931.13
2022-12-31T06:13:30.979Z,99937.94
2022-12-31T06:16:06.891Z,99931.78
2022-12-31T06:18:35.472Z,99935.09
2022-12-31T06:21:05.388Z,99932.50
2022-12-31T06:23:33.752Z,99934.28
2022-12-31T06:26:03.525Z,99948.25
2022-12-31T06:28:32.338Z,99948.19
2022-12-31T06:31:03.257Z,99944.53
2022-12-31T06:33:32.520Z,99941.03
2022-12-31T06:36:02.482Z,99939.34
2022-12-31T06:38:33.689Z,99930.63
2022-12-31T06:41:04.510Z,99932.38
2022-12-31T06:43:33.412Z,99929.75
2022-12-31T06:46:04.297Z,99942.66
2022-12-31T06:48:33.238Z,99945.94
2022-12-31T06:51:05.627Z,99940.59
2022-12-31T06:53:34.499Z,99944.75
2022-12-31T06:56:07.487Z,99942.00
2022-12-31T06:58:37.231Z,99949.56
2022-12-31T07:01:27.291Z,99961.63
2022-12-31T07:04:02.719Z,99975.19
2022-12-31T07:06:36.171Z,99967.28
2022-12-31T07:09:11.215Z,99968.78
2022-12-31T07:11:55.839Z,99967.81
2022-12-31T07:14:36.015Z,99970.50
2022-12-31T07:17:16.724Z,99973.00
2022-12-31T07:19:57.886Z,99968.41
2022-12-31T07:22:27.006Z,99984.72
2022-12-31T07:24:56.196Z,99984.50
2022-12-31T07:27:40.309Z,99996.44
2022-12-31T07:30:12.724Z,99986.47
2022-12-31T07:33:12.304Z,99995.53
2022-12-31T07:35:50.302Z,99992.72
2022-12-31T07:38:31.025Z,99988.22
2022-12-31T07:41:09.940Z,99996.75
2022-12-31T07:43:49.923Z,99983.69
2022-12-31T07:46:23.547Z,99987.97
2022-12-31T07:48:54.415Z,99989.63
2022-12-31T07:51:23.874Z,99986.00
2022-12-31T07:53:52.448Z,99980.59
2022-12-31T07:56:21.404Z,99990.81
2022-12-31T07:59:02.534Z,99989.84
2022-12-31T08:01:36.644Z,99982.69
2022-12-31T08:04:17.135Z,99979.78
2022-12-31T08:06:55.385Z,99983.19
2022-12-31T08:09:36.732Z,99982.25
2022-12-31T08:12:05.648Z,99971.75
2022-12-31T08:14:42.003Z,99975.31
2022-12-31T08:17:13.501Z,99961.31
2022-12-31T08:19:45.917Z,99961.31
2022-12-31T08:22:39.528Z,99971.53
2022-12-31T08:25:18.952Z,99979.06
2022-12-31T08:27:58.411Z,99987.47
2022-12-31T08:30:37.163Z,99995.00
2022-12-31T08:33:15.079Z,99998.28
2022-12-31T08:36:04.270Z,99993.13
2022-12-31T08:38:38.411Z,100002.66
2022-12-31T08:41:15.085Z,100014.06
2022-12-31T08:43:51.510Z,100023.44
2022-12-31T08:46:27.603Z,100026.63
2022-12-31T08:48:56.503Z,100030.00
2022-12-31T08:51:28.423Z,100030.78
2022-12-31T08:53:57.591Z,100025.47
2022-12-31T08:56:34.387Z,100026.09
2022-12-31T08:59:16.295Z,100032.91
2022-12-31T09:02:00.089Z,100023.88
2022-12-31T09:04:35.519Z,100023.59
2022-12-31T09:07:06.562Z,100035.59
2022-12-31T09:09:45.571Z,100037.97
2022-12-31T09:12:23.283Z,100032.56
2022-12-31T09:15:02.014Z,100025.41
2022-12-31T09:17:46.995Z,100022.56
2022-12-31T09:20:24.888Z,100025.19
2022-12-31T09:22:56.314Z,100011.09
2022-12-31T09:25:26.572Z,100003.88
2022-12-31T09:28:17.386Z,99997.38
2022-12-31T09:30:54.647Z,99991.56
2022-12-31T09:33:35.949Z,99992.69
2022-12-31T09:36:08.775Z,99987.69
2022-12-31T09:38:45.341Z,99991.56
2022-12-31T09:41:24.808Z,99992.16
2022-12-31T09:44:29.094Z,99982.47
2022-12-31T09:47:36.018Z,99996.22
2022-12-31T09:50:41.256Z,99986.66
2022-12-31T09:53:27.637Z,99992.63
2022-12-31T09:56:04.340Z,99995.94
2022-12-31T09:58:42.733Z,99996.44
2022-12-31T10:01:28.128Z,99990.22
2022-12-31T10:04:30.751Z,99994.53
2022-12-31T10:07:13.169Z,99984.97
2022-12-31T10:09:55.867Z,99983.00
2022-12-31T10:12:57.465Z,99969.56
2022-12-31T10:16:10.265Z,99966.63
2022-12-31T10:18:57.015Z,99972.44
2022-12-31T10:21:46.426Z,99948.66
2022-12-31T10:24:33.028Z,99951.88
2022-12-31T10:27:10.727Z,99952.38
2022-12-31T10:29:47.904Z,99921.31
2022-12-31T10:32:27.781Z,99911.53
2022-12-31T10:35:13.790Z,99918.41
2022-12-31T10:37:49.372Z,99921.03
2022-12-31T10:40:30.901Z,99914.97
2022-12-31T10:43:25.018Z,99899.94
2022-12-31T10:46:30.213Z,99880.28
2022-12-31T10:49:41.971Z,99891.03
2022-12-31T10:52:33.606Z,99885.59
2022-12-31T10:55:55.537Z,99887.06
2022-12-31T10:58:58.305Z,99896.69
2022-12-31T11:01:42.409Z,99898.25
2022-12-31T11:04:55.174Z,99901.81
2022-12-31T11:07:41.161Z,99901.50
2022-12-31T11:10:54.370Z,99900.19
2022-12-31T11:13:47.328Z,99883.63
2022-12-31T11:16:39.539Z,99878.44
2022-12-31T11:19:18.280Z,99894.94
2022-12-31T11:22:08.282Z,99884.00
2022-12-31T11:24:53.887Z,99890.34
2022-12-31T11:27:33.519Z,99880.47
2022-12-31T11:30:12.625Z,99882.34
2022-12-31T11:33:02.010Z,99877.03
2022-12-31T11:35:39.750Z,99888.34
2022-12-31T11:38:19.944Z,99884.03
2022-12-31T11:41:01.384Z,99880.94
2022-12-31T11:43:37.409Z,99874.16
2022-12-31T11:46:43.242Z,99880.41
2022-12-31T11:49:31.028Z,99878.47
2022-12-31T11:52:21.583Z,99880.00
2022-12-31T11:55:22.994Z,99909.34
2022-12-31T11:57:53.005Z,99919.78
2022-12-31T12:00:24.341Z,99921.16
2022-12-31T12:02:57.177Z,99916.75
2022-12-31T12:05:28.494Z,99911.22
2022-12-31T12:07:57.921Z,99916.31
2022-12-31T12:10:35.674Z,99907.34
2022-12-31T12:13:15.093Z,99879.13
2022-12-31T12:15:48.183Z,99878.19
2022-12-31T12:18:26.728Z,99882.59
2022-12-31T12:21:04.218Z,99907.34
2022-12-31T12:23:33.051Z,99890.41
2022-12-31T12:26:01.703Z,99889.38
2022-12-31T12:28:32.532Z,99876.69
2022-12-31T12:31:03.282Z,99880.06
2022-12-31T12:33:42.857Z,99868.41
2022-12-31T12:36:15.655Z,99865.75
2022-12-31T12:38:44.881Z,99873.81
2022-12-31T12:41:21.954Z,99870.94
2022-12-31T12:43:50.923Z,99862.88
2022-12-31T12:46:32.925Z,99854.81
2022-12-31T12:49:03.266Z,99865.88
2022-12-31T12:51:47.269Z,99872.66
2022-12-31T12:54:28.871Z,99882.00
2022-12-31T12:57:08.432Z,99873.34
2022-12-31T13:00:03.419Z,99863.47
2022-12-31T13:02:57.137Z,99849.38
2022-12-31T13:05:37.760Z,99847.69
2022-12-31T13:08:22.147Z,99854.84
2022-12-31T13:11:01.196Z,99842.72
2022-12-31T13:13:38.003Z,99836.66
2022-12-31T13:16:14.025Z,99839.06
2022-12-31T13:18:53.377Z,99833.22
2022-12-31T13:21:36.540Z,99837.53
2022-12-31T13:24:18.847Z,99856.19
2022-12-31T13:26:53.905Z,99855.50
2022-12-31T13:29:28.688Z,99860.03
2022-12-31T13:32:36.979Z,99860.69
2022-12-31T13:35:21.007Z,99851.44
2022-12-31T13:37:52.203Z,99845.84
2022-12-31T13:40:28.077Z,99842.19
2022-12-31T13:43:04.655Z,99851.78
2022-12-31T13:45:45.541Z,99845.66
2022-12-31T13:48:20.626Z,99850.09
2022-12-31T13:51:02.977Z,99848.41
2022-12-31T13:53:38.064Z,99844.81
2022-12-31T13:56:16.809Z,99844.81
2022-12-31T13:58:51.252Z,99842.94
2022-12-31T14:01:26.248Z,99834.81
2022-12-31T14:04:07.877Z,99846.53
2022-12-31T14:11:16.250Z,99856.88
2022-12-31T14:14:22.642Z,99869.69
2022-12-31T14:46:30.756Z,99887.44
2022-12-31T14:49:12.771Z,99878.69
2022-12-31T14:51:41.117Z,99883.00
2022-12-31T14:54:29.057Z,99884.53
2022-12-31T14:56:58.392Z,99885.63
2022-12-31T14:59:29.776Z,99873.06
2022-12-31T15:02:02.307Z,99882.69
2022-12-31T15:04:43.265Z,99885.38
2022-12-31T15:07:20.611Z,99899.13
2022-12-31T15:10:08.740Z,99897.34
2022-12-31T15:13:04.803Z,99896.41
2022-12-31T15:15:58.008Z,99899.06
2022-12-31T15:18:40.398Z,99900.66
2022-12-31T15:21:29.403Z,99897.75
2022-12-31T15:23:58.467Z,99898.34
2022-12-31T15:26:31.498Z,99889.88
2022-12-31T15:29:04.171Z,99880.63
2022-12-31T15:31:35.156Z,99876.13
2022-12-31T15:34:07.825Z,99877.72
2022-12-31T15:36:39.570Z,99864.25
2022-12-31T15:39:25.942Z,99889.72
2022-12-31T15:42:36.204Z,99892.50
2022-12-31T15:44:51.076Z,99893.00
2022-12-31T15:47:29.633Z,99891.31
2022-12-31T15:50:03.209Z,99885.31
2022-12-31T15:52:40.979Z,99896.72
2022-12-31T15:55:17.735Z,99891.31
2022-12-31T15:57:46.718Z,99893.59
2022-12-31T16:00:21.690Z,99883.00
2022-12-31T16:02:54.032Z,99887.44
2022-12-31T16:05:26.065Z,99880.19
2022-12-31T16:07:55.635Z,99883.00
2022-12-31T16:10:27.972Z,99896.41
2022-12-31T16:12:57.986Z,99885.03
2022-12-31T16:15:29.126Z,99891.06
2022-12-31T16:18:03.496Z,99897.94
2022-12-31T16:20:35.783Z,99892.50
2022-12-31T16:23:19.961Z,99894.88
2022-12-31T16:25:52.342Z,99887.94
2022-12-31T16:28:26.912Z,99893.69
2022-12-31T16:31:01.975Z,99892.31
2022-12-31T16:33:32.909Z,99908.03
2022-12-31T16:36:05.364Z,99904.81
2022-12-31T16:38:35.403Z,99905.06
2022-12-31T16:41:18.919Z,99905.91
2022-12-31T16:43:49.957Z,99907.78
2022-12-31T16:46:23.213Z,99911.69
2022-12-31T16:48:56.175Z,99910.66
2022-12-31T16:51:30.413Z,99911.00
2022-12-31T16:54:02.682Z,99907.63
2022-12-31T16:56:34.703Z,99919.09
2022-12-31T16:59:08.457Z,99925.28
2022-12-31T17:01:39.173Z,99924.50
2022-12-31T17:04:11.909Z,99926.97
2022-12-31T17:06:44.227Z,99930.72
2022-12-31T17:09:20.779Z,99935.69
2022-12-31T17:11:54.136Z,99935.69
2022-12-31T17:14:25.263Z,99940.81
2022-12-31T17:17:03.017Z,99937.00
2022-12-31T17:19:42.682Z,99930.44
2022-12-31T17:22:22.826Z,99925.00
2022-12-31T17:25:01.454Z,99930.34
2022-12-31T17:27:30.609Z,99933.41
2022-12-31T17:30:21.373Z,99942.06
2022-12-31T17:32:51.954Z,99938.59
2022-12-31T17:35:32.064Z,99927.28
2022-12-31T17:38:31.336Z,99924.16
2022-12-31T17:41:15.530Z,99922.72
2022-12-31T17:43:44.392Z,99921.88
2022-12-31T17:46:15.454Z,99930.03
2022-12-31T17:48:46.313Z,99937.75
2022-12-31T17:51:14.910Z,99934.09
2022-12-31T17:53:46.304Z,99938.84
2022-12-31T17:56:18.843Z,99941.75
2022-12-31T17:58:50.975Z,99928.91
2022-12-31T18:01:21.890Z,99932.31
2022-12-31T18:03:50.874Z,99927.91
2022-12-31T18:06:20.585Z,99925.28
2022-12-31T18:08:50.731Z,99927.91
2022-12-31T18:11:21.985Z,99912.88
2022-12-31T18:13:51.206Z,99924.94
2022-12-31T18:16:19.765Z,99923.06
2022-12-31T18:18:48.386Z,99931.38
2022-12-31T18:21:23.739Z,99928.13
2022-12-31T18:26:24.307Z,99940.47
2022-12-31T18:28:53.436Z,99931.81
2022-12-31T18:31:24.029Z,99933.22
2022-12-31T18:33:54.837Z,99932.13
2022-12-31T18:36:25.031Z,99929.84
2022-12-31T18:38:55.138Z,99935.84
2022-12-31T18:41:27.978Z,99938.69
2022-12-31T18:43:57.186Z,99935.28
2022-12-31T18:46:27.147Z,99936.78
2022-12-31T18:48:56.019Z,99938.47
2022-12-31T18:51:31.717Z,99942.84
2022-12-31T18:54:03.232Z,99945.38
2022-12-31T18:56:33.398Z,99939.84
2022-12-31T18:59:02.699Z,99945.78
2022-12-31T19:01:33.562Z,99940.50
2022-12-31T19:04:04.571Z,99947.75
2022-12-31T19:06:33.601Z,99957.19
2022-12-31T19:09:13.166Z,99960.63
2022-12-31T19:11:54.205Z,99953.44
2022-12-31T19:14:26.734Z,99961.34
2022-12-31T19:19:27.452Z,99969.31
2022-12-31T19:21:56.099Z,99965.66
2022-12-31T19:24:29.403Z,99977.72
2022-12-31T19:26:58.029Z,99964.25
2022-12-31T19:29:29.459Z,99972.09
2022-12-31T19:31:58.414Z,99958.16
2022-12-31T19:34:26.955Z,99959.00
2022-12-31T19:36:55.575Z,99969.63
2022-12-31T19:39:25.649Z,99968.00
2022-12-31T19:41:58.883Z,99970.56
2022-12-31T19:44:28.825Z,99980.16
2022-12-31T19:46:57.758Z,99984.50
2022-12-31T19:49:26.286Z,99976.69
2022-12-31T19:51:55.215Z,99983.06
2022-12-31T19:54:25.326Z,99981.63
2022-12-31T19:56:53.997Z,99979.19
2022-12-31T19:59:23.046Z,99982.00
2022-12-31T20:01:52.778Z,99982.16
2022-12-31T20:04:22.689Z,99984.03
2022-12-31T20:06:51.215Z,99984.72
2022-12-31T20:09:19.976Z,99987.50
2022-12-31T20:11:49.816Z,99991.34
2022-12-31T20:14:19.026Z,99985.63
2022-12-31T20:16:47.569Z,99983.34
2022-12-31T20:19:16.561Z,99987.75
2022-12-31T20:21:45.237Z,99984.44
2022-12-31T20:24:13.851Z,99978.59
2022-12-31T20:26:42.330Z,99989.22
2022-12-31T20:29:12.530Z,99996.44
2022-12-31T20:31:41.337Z,99990.53
2022-12-31T20:34:11.196Z,99979.53
2022-12-31T20:36:40.571Z,99978.81
2022-12-31T20:39:09.552Z,99973.50
2022-12-31T20:41:38.410Z,99974.16
2022-12-31T20:44:07.145Z,99962.72
2022-12-31T20:46:37.239Z,99965.69
2022-12-31T20:49:06.394Z,99967.47
2022-12-31T20:51:36.432Z,99963.03
2022-12-31T20:54:07.007Z,99961.06
2022-12-31T20:56:38.091Z,99965.75
2022-12-31T20:59:07.659Z,99966.69
2022-12-31T21:02:11.661Z,99968.38
2022-12-31T21:04:27.730Z,99971.97
2022-12-31T21:06:57.154Z,99965.16
2022-12-31T21:09:25.682Z,99976.41
2022-12-31T21:12:11.481Z,99984.19
2022-12-31T21:14:44.728Z,99986.81
2022-12-31T21:17:15.999Z,99975.88
2022-12-31T21:19:44.643Z,99982.84
2022-12-31T21:22:13.618Z,99982.84
2022-12-31T21:24:42.265Z,99980.13
2022-12-31T21:27:10.813Z,99994.31
2022-12-31T21:30:01.925Z,99996.31
2022-12-31T21:32:30.001Z,100002.38
2022-12-31T21:35:39.656Z,99994.56
2022-12-31T21:37:58.629Z,100002.44
2022-12-31T21:40:29.396Z,99998.56
2022-12-31T21:42:58.064Z,100010.41
2022-12-31T21:45:27.044Z,100010.47
2022-12-31T21:48:17.296Z,100008.19
2022-12-31T21:50:48.691Z,100010.50
2022-12-31T21:53:23.505Z,100010.56
2022-12-31T21:56:09.162Z,100007.75
2022-12-31T21:58:38.886Z,100008.09
2022-12-31T22:01:26.130Z,100002.16
2022-12-31T22:03:56.137Z,100003.41
2022-12-31T22:06:26.301Z,100013.31
2022-12-31T22:08:56.403Z,100006.03
2022-12-31T22:11:27.211Z,100011.28
2022-12-31T22:13:56.853Z,100002.78
2022-12-31T22:16:25.565Z,99999.56
2022-12-31T22:18:57.182Z,100005.91
2022-12-31T22:21:26.889Z,100004.53
2022-12-31T22:23:58.824Z,100012.91
2022-12-31T22:26:28.781Z,100006.25
2022-12-31T22:28:59.695Z,100012.16
2022-12-31T22:31:30.562Z,100013.84
2022-12-31T22:34:02.169Z,100011.97
2022-12-31T22:36:32.346Z,100001.94
2022-12-31T22:39:01.121Z,100020.34
2022-12-31T22:41:30.016Z,100022.34
2022-12-31T22:44:04.574Z,100019.19
2022-12-31T22:46:34.905Z,100018.31
2022-12-31T22:49:06.188Z,100015.69
2022-12-31T22:51:56.516Z,100011.28
2022-12-31T22:54:23.684Z,100004.22
2022-12-31T22:56:52.284Z,100016.63
2022-12-31T22:59:20.975Z,100018.78
2022-12-31T23:01:49.467Z,100013.97
2022-12-31T23:04:19.611Z,100010.72
2022-12-31T23:06:48.193Z,100014.28
2022-12-31T23:09:35.989Z,100023.84
2022-12-31T23:12:05.870Z,100020.75
2022-12-31T23:14:52.021Z,100026.72
2022-12-31T23:17:41.147Z,100022.13
2022-12-31T23:20:31.671Z,100033.34
2022-12-31T23:23:22.263Z,100028.28
2022-12-31T23:25:53.883Z,100028.72
2022-12-31T23:28:24.438Z,100044.22
2022-12-31T23:30:54.052Z,100039.03
2022-12-31T23:33:24.517Z,100040.03
2022-12-31T23:36:03.937Z,100041.72
2022-12-31T23:38:33.221Z,100035.69
2022-12-31T23:41:01.784Z,100034.06
2022-12-31T23:43:30.446Z,100025.03
2022-12-31T23:45:59.187Z,100026.31
2022-12-31T23:48:27.762Z,100028.78
2022-12-31T23:50:57.890Z,100020.97
2022-12-31T23:53:26.944Z,100023.34
2022-12-31T23:55:55.654Z,100017.34
2022-12-31T23:58:24.327Z,100002.16
